Petersville, Texas
Current Conditions -  °F | °C
As of 11:51 AM on Thursday 23 Oct 2014 (Local Time) from KVCT Reporting Station
Clear Clear  
Wind Chill: 23°   Ceiling: Unl
Heat Index: 23°   Visibility: 10mi
Dew Point: 16°   Wind: 6mph
Humidity: 64%   Direction: 50°NE
Pressure: 30.13"   Gusts: NA
Location:  29.2421°N, 97.0692°W
Report Text: KVCT 231651Z 05005KT 10SM CLR 23/16 A3013 RMK AO2 SLP202 T02330161
Loading
Personal Weather Stations






























Interactive Weather Map
Tropical Storm Tracking
New forecast layout! Learn more

10-Day Weather Forecast

Advertisements
Track Severe Weather on mobile